createdAt,value
2022-09-17T00:01:33.175Z,99364.22
2022-09-17T00:04:02.201Z,99370.66
2022-09-17T00:06:29.157Z,99372.00
2022-09-17T00:08:55.913Z,99377.22
2022-09-17T00:11:26.036Z,99378.13
2022-09-17T00:13:54.009Z,99376.13
2022-09-17T00:16:39.766Z,99382.41
2022-09-17T00:19:09.232Z,99383.97
2022-09-17T00:21:36.177Z,99388.16
2022-09-17T00:24:04.939Z,99383.53
2022-09-17T00:26:33.080Z,99385.78
2022-09-17T00:29:00.404Z,99393.47
2022-09-17T00:31:28.924Z,99387.72
2022-09-17T00:33:55.761Z,99398.84
2022-09-17T00:36:23.157Z,99400.97
2022-09-17T00:38:58.434Z,99403.09
2022-09-17T00:41:28.914Z,99401.09
2022-09-17T00:43:58.756Z,99416.50
2022-09-17T00:46:32.194Z,99406.28
2022-09-17T00:49:06.343Z,99416.94
2022-09-17T00:51:36.408Z,99407.53
2022-09-17T00:54:04.567Z,99418.41
2022-09-17T00:56:34.351Z,99419.38
2022-09-17T00:59:02.256Z,99426.09
2022-09-17T01:01:29.608Z,99419.56
2022-09-17T01:03:56.386Z,99417.84
2022-09-17T01:06:43.411Z,99424.56
2022-09-17T01:09:30.335Z,99435.03
2022-09-17T01:12:27.663Z,99439.69
2022-09-17T01:15:07.267Z,99442.22
2022-09-17T01:18:18.423Z,99433.50
2022-09-17T01:21:22.704Z,99434.88
2022-09-17T01:23:53.762Z,99445.53
2022-09-17T01:26:44.842Z,99432.69
2022-09-17T01:35:43.365Z,99446.72
2022-09-17T01:38:32.584Z,99457.34
2022-09-17T01:41:21.127Z,99448.69
2022-09-17T01:44:08.134Z,99453.19
2022-09-17T01:46:44.032Z,99443.63
2022-09-17T01:49:11.635Z,99448.47
2022-09-17T01:51:46.050Z,99452.03
2022-09-17T01:54:18.260Z,99457.44
2022-09-17T01:56:54.825Z,99451.75
2022-09-17T01:59:25.556Z,99448.06
2022-09-17T02:01:53.502Z,99451.63
2022-09-17T02:04:24.547Z,99459.22
2022-09-17T02:06:55.277Z,99452.81
2022-09-17T02:09:25.016Z,99451.00
2022-09-17T02:11:55.771Z,99461.78
2022-09-17T02:14:30.108Z,99465.50
2022-09-17T02:17:25.345Z,99463.56
2022-09-17T02:19:53.794Z,99455.66
2022-09-17T02:22:41.442Z,99463.81
2022-09-17T02:25:19.729Z,99459.94
2022-09-17T02:27:52.453Z,99475.78
2022-09-17T02:30:19.450Z,99478.28
2022-09-17T02:32:46.542Z,99473.25
2022-09-17T02:35:14.996Z,99475.28
2022-09-17T02:37:42.918Z,99472.78
2022-09-17T02:40:11.913Z,99484.84
2022-09-17T02:43:03.150Z,99480.72
2022-09-17T02:46:07.653Z,99477.47
2022-09-17T02:48:53.248Z,99476.88
2022-09-17T02:51:45.467Z,99488.41
2022-09-17T02:54:23.747Z,99471.34
2022-09-17T02:57:18.469Z,99482.50
2022-09-17T03:00:12.784Z,99464.75
2022-09-17T03:02:47.473Z,99470.59
2022-09-17T03:05:17.411Z,99477.13
2022-09-17T03:07:46.067Z,99464.88
2022-09-17T03:10:13.651Z,99465.69
2022-09-17T03:12:41.183Z,99463.19
2022-09-17T03:15:08.641Z,99470.00
2022-09-17T03:17:35.416Z,99466.31
2022-09-17T03:20:02.306Z,99464.56
2022-09-17T03:22:29.158Z,99463.47
2022-09-17T03:24:55.915Z,99464.53
2022-09-17T03:27:22.684Z,99475.28
2022-09-17T03:29:49.398Z,99471.75
2022-09-17T03:32:16.196Z,99469.22
2022-09-17T03:34:43.041Z,99474.53
2022-09-17T03:37:09.757Z,99462.16
2022-09-17T03:39:36.484Z,99467.47
2022-09-17T03:42:03.276Z,99472.66
2022-09-17T03:44:30.004Z,99469.75
2022-09-17T03:46:56.898Z,99472.72
2022-09-17T03:49:26.364Z,99467.41
2022-09-17T03:51:53.076Z,99465.06
2022-09-17T03:54:19.935Z,99466.53
2022-09-17T03:56:46.639Z,99467.72
2022-09-17T03:59:13.452Z,99468.56
2022-09-17T04:01:40.347Z,99468.25
2022-09-17T04:04:07.976Z,99463.50
2022-09-17T04:06:34.939Z,99468.25
2022-09-17T04:09:03.897Z,99467.69
2022-09-17T04:11:30.757Z,99472.22
2022-09-17T04:13:57.569Z,99478.56
2022-09-17T04:16:24.462Z,99478.56
2022-09-17T04:18:51.292Z,99494.69
2022-09-17T04:21:17.981Z,99478.38
2022-09-17T04:23:44.714Z,99477.19
2022-09-17T04:26:11.487Z,99486.22
2022-09-17T04:28:38.427Z,99481.84
2022-09-17T04:31:05.253Z,99478.75
2022-09-17T04:33:32.108Z,99475.38
2022-09-17T04:35:58.877Z,99488.28
2022-09-17T04:38:25.645Z,99480.44
2022-09-17T04:40:57.433Z,99495.41
2022-09-17T04:43:24.221Z,99490.69
2022-09-17T04:45:50.924Z,99498.69
2022-09-17T04:48:18.174Z,99493.16
2022-09-17T04:50:44.922Z,99494.00
2022-09-17T04:53:12.667Z,99501.41
2022-09-17T04:55:39.617Z,99497.25
2022-09-17T04:58:06.441Z,99501.03
2022-09-17T05:00:33.221Z,99495.28
2022-09-17T05:02:59.973Z,99494.16
2022-09-17T05:05:26.938Z,99495.44
2022-09-17T05:07:53.810Z,99500.16
2022-09-17T05:10:22.050Z,99502.38
2022-09-17T05:12:56.277Z,99513.28
2022-09-17T05:15:24.314Z,99500.47
2022-09-17T05:17:51.038Z,99495.50
2022-09-17T05:20:17.943Z,99502.13
2022-09-17T05:22:46.299Z,99505.75
2022-09-17T05:25:14.805Z,99513.16
2022-09-17T05:27:41.499Z,99501.53
2022-09-17T05:30:09.582Z,99518.09
2022-09-17T05:32:36.974Z,99517.22
2022-09-17T05:35:05.713Z,99522.22
2022-09-17T05:37:32.891Z,99516.44
2022-09-17T05:39:59.823Z,99519.81
2022-09-17T05:42:26.533Z,99516.38
2022-09-17T05:44:53.209Z,99524.06
2022-09-17T05:47:19.915Z,99524.22
2022-09-17T05:49:46.555Z,99517.75
2022-09-17T05:52:13.249Z,99527.47
2022-09-17T05:54:39.927Z,99527.56
2022-09-17T05:57:06.706Z,99532.06
2022-09-17T05:59:33.651Z,99535.13
2022-09-17T06:02:00.385Z,99539.66
2022-09-17T06:04:29.588Z,99532.50
2022-09-17T06:06:58.293Z,99528.75
2022-09-17T06:09:25.149Z,99536.59
2022-09-17T06:11:52.803Z,99537.06
2022-09-17T06:14:19.532Z,99538.00
2022-09-17T06:16:46.311Z,99548.88
2022-09-17T06:19:13.205Z,99545.91
2022-09-17T06:21:39.867Z,99555.50
2022-09-17T06:24:09.487Z,99538.94
2022-09-17T06:26:36.232Z,99546.78
2022-09-17T06:29:03.013Z,99547.19
2022-09-17T06:32:12.959Z,99558.06
2022-09-17T06:38:00.524Z,99556.00
2022-09-17T06:40:58.975Z,99556.75
2022-09-17T06:43:41.342Z,99554.38
2022-09-17T06:46:11.638Z,99559.38
2022-09-17T06:48:50.092Z,99558.75
2022-09-17T06:51:17.021Z,99551.31
2022-09-17T06:53:43.785Z,99549.78
2022-09-17T06:56:13.143Z,99569.31
2022-09-17T06:58:42.128Z,99568.41
2022-09-17T07:01:10.240Z,99558.34
2022-09-17T07:03:38.283Z,99570.56
2022-09-17T07:06:12.281Z,99566.06
2022-09-17T07:08:47.667Z,99559.31
2022-09-17T07:11:16.145Z,99567.75
2022-09-17T07:13:42.956Z,99573.81
2022-09-17T07:16:10.452Z,99569.47
2022-09-17T07:18:50.259Z,99571.44
2022-09-17T07:21:17.286Z,99572.28
2022-09-17T07:23:44.870Z,99584.03
2022-09-17T07:26:15.694Z,99580.22
2022-09-17T07:28:43.797Z,99588.50
2022-09-17T07:31:16.098Z,99574.34
2022-09-17T07:33:43.505Z,99575.59
2022-09-17T07:36:12.376Z,99566.34
2022-09-17T07:38:39.786Z,99572.63
2022-09-17T07:41:09.598Z,99577.31
2022-09-17T07:43:36.675Z,99565.81
2022-09-17T07:46:09.882Z,99578.13
2022-09-17T07:48:38.458Z,99573.88
2022-09-17T07:51:05.353Z,99570.56
2022-09-17T07:53:33.194Z,99574.50
2022-09-17T07:58:36.103Z,99571.19
2022-09-17T08:01:13.834Z,99580.13
2022-09-17T08:03:40.721Z,99575.19
2022-09-17T08:06:38.882Z,99589.53
2022-09-17T08:09:20.544Z,99578.13
2022-09-17T08:11:56.108Z,99584.31
2022-09-17T08:14:39.525Z,99585.03
2022-09-17T08:17:41.938Z,99580.13
2022-09-17T08:20:09.402Z,99576.53
2022-09-17T08:22:37.415Z,99583.94
2022-09-17T08:25:18.739Z,99575.38
2022-09-17T08:28:50.438Z,99575.66
2022-09-17T08:31:35.573Z,99574.53
2022-09-17T08:34:12.398Z,99577.94
2022-09-17T08:36:51.973Z,99584.81
2022-09-17T08:39:33.482Z,99586.75
2022-09-17T08:42:25.736Z,99568.53
2022-09-17T08:45:00.555Z,99562.09
2022-09-17T08:47:39.138Z,99562.81
2022-09-17T08:50:40.424Z,99567.03
2022-09-17T08:53:15.537Z,99556.34
2022-09-17T08:55:46.844Z,99555.03
2022-09-17T08:58:38.197Z,99580.22
2022-09-17T09:01:26.919Z,99582.47
2022-09-17T09:03:59.820Z,99592.41
2022-09-17T09:06:50.074Z,99585.81
2022-09-17T09:09:23.676Z,99566.72
2022-09-17T09:12:31.685Z,99593.53
2022-09-17T09:15:15.135Z,99574.16
2022-09-17T09:17:49.662Z,99584.97
2022-09-17T09:20:41.162Z,99580.50
2022-09-17T09:23:44.038Z,99580.31
2022-09-17T09:26:18.318Z,99589.47
2022-09-17T09:29:03.740Z,99589.72
2022-09-17T09:31:46.451Z,99584.34
2022-09-17T09:34:33.690Z,99583.47
2022-09-17T09:37:33.741Z,99596.25
2022-09-17T09:40:20.302Z,99614.69
2022-09-17T09:42:51.151Z,99608.91
2022-09-17T09:45:28.506Z,99607.84
2022-09-17T09:48:41.081Z,99595.22
2022-09-17T09:51:27.935Z,99610.06
2022-09-17T09:54:13.401Z,99596.63
2022-09-17T09:56:59.284Z,99617.00
2022-09-17T09:59:32.035Z,99615.47
2022-09-17T10:02:05.085Z,99618.31
2022-09-17T10:04:53.357Z,99624.78
2022-09-17T10:07:29.791Z,99616.50
2022-09-17T10:10:13.179Z,99607.63
2022-09-17T10:12:40.338Z,99624.84
2022-09-17T10:15:58.274Z,99626.56
2022-09-17T10:18:26.230Z,99644.63
2022-09-17T10:21:11.788Z,99629.38
2022-09-17T10:23:53.303Z,99624.13
2022-09-17T10:26:31.537Z,99631.75
2022-09-17T10:29:04.368Z,99638.47
2022-09-17T10:32:00.731Z,99636.81
2022-09-17T10:35:26.160Z,99635.97
2022-09-17T10:37:53.870Z,99633.41
2022-09-17T10:40:20.725Z,99633.09
2022-09-17T10:42:51.729Z,99620.34
2022-09-17T10:45:29.785Z,99621.03
2022-09-17T10:48:00.086Z,99616.34
2022-09-17T10:50:32.019Z,99621.59
2022-09-17T10:53:04.918Z,99613.41
2022-09-17T10:55:38.043Z,99635.97
2022-09-17T10:58:10.276Z,99643.94
2022-09-17T11:00:40.067Z,99665.00
2022-09-17T11:03:23.019Z,99627.91
2022-09-17T11:06:21.185Z,99634.22
2022-09-17T11:09:09.839Z,99638.59
2022-09-17T11:11:57.506Z,99651.06
2022-09-17T11:14:46.790Z,99655.69
2022-09-17T11:17:46.959Z,99637.16
2022-09-17T11:21:09.451Z,99634.53
2022-09-17T11:23:52.714Z,99629.31
2022-09-17T11:26:31.815Z,99629.66
2022-09-17T11:29:17.401Z,99627.94
2022-09-17T11:31:55.320Z,99637.66
2022-09-17T11:34:22.257Z,99621.84
2022-09-17T11:37:06.195Z,99619.50
2022-09-17T11:39:47.697Z,99624.00
2022-09-17T11:43:07.515Z,99647.75
2022-09-17T11:45:39.732Z,99618.44
2022-09-17T11:48:42.461Z,99610.81
2022-09-17T11:51:20.164Z,99607.47
2022-09-17T11:53:51.783Z,99625.50
2022-09-17T11:56:50.330Z,99629.25
2022-09-17T11:59:31.069Z,99612.22
2022-09-17T12:02:34.976Z,99631.09
2022-09-17T12:05:22.402Z,99640.66
2022-09-17T12:07:59.846Z,99624.28
2022-09-17T12:10:35.137Z,99607.28
2022-09-17T12:13:30.035Z,99623.56
2022-09-17T12:16:35.224Z,99615.63
2022-09-17T12:19:36.986Z,99598.00
2022-09-17T12:22:35.022Z,99606.28
2022-09-17T12:25:04.454Z,99617.81
2022-09-17T12:27:52.947Z,99610.47
2022-09-17T12:30:26.727Z,99611.47
2022-09-17T12:32:59.310Z,99619.50
2022-09-17T12:36:05.512Z,99617.16
2022-09-17T12:39:07.281Z,99634.66
2022-09-17T12:42:23.840Z,99636.53
2022-09-17T12:45:51.010Z,99611.81
2022-09-17T12:48:53.468Z,99605.88
2022-09-17T12:52:01.772Z,99591.88
2022-09-17T12:54:50.281Z,99605.94
2022-09-17T12:57:31.283Z,99594.88
2022-09-17T13:00:08.191Z,99590.19
2022-09-17T13:02:43.066Z,99607.38
2022-09-17T13:05:57.607Z,99602.03
2022-09-17T13:08:53.001Z,99584.78
2022-09-17T13:11:38.401Z,99584.22
2022-09-17T13:14:24.489Z,99595.19
2022-09-17T13:17:05.390Z,99579.50
2022-09-17T13:20:04.694Z,99582.19
2022-09-17T13:22:34.172Z,99569.03
2022-09-17T13:25:14.589Z,99573.63
2022-09-17T13:27:41.542Z,99586.75
2022-09-17T13:30:11.101Z,99606.69
2022-09-17T13:32:41.345Z,99583.66
2022-09-17T13:35:16.999Z,99603.13
2022-09-17T13:37:53.275Z,99602.13
2022-09-17T13:40:27.832Z,99599.94
2022-09-17T13:42:57.123Z,99607.94
2022-09-17T13:45:25.874Z,99594.94
2022-09-17T13:47:55.176Z,99603.78
2022-09-17T13:50:28.075Z,99610.75
2022-09-17T13:52:57.393Z,99589.38
2022-09-17T13:55:34.745Z,99584.41
2022-09-17T13:58:08.707Z,99618.44
2022-09-17T14:00:52.964Z,99584.00
2022-09-17T14:03:29.192Z,99568.69
2022-09-17T14:05:56.552Z,99590.75
2022-09-17T14:08:28.738Z,99586.81
2022-09-17T14:10:57.428Z,99587.94
2022-09-17T14:13:36.378Z,99588.19
2022-09-17T14:16:03.393Z,99616.34
2022-09-17T14:18:35.411Z,99587.19
2022-09-17T14:21:05.856Z,99596.59
2022-09-17T14:23:46.833Z,99576.66
2022-09-17T14:26:29.000Z,99584.41
2022-09-17T14:29:43.781Z,99584.88
2022-09-17T14:32:16.609Z,99587.94
2022-09-17T14:34:43.482Z,99581.22
2022-09-17T14:37:14.453Z,99595.13
2022-09-17T14:39:41.436Z,99586.75
2022-09-17T14:42:15.736Z,99603.72
2022-09-17T14:44:55.003Z,99599.44
2022-09-17T14:47:22.758Z,99612.41
2022-09-17T14:49:50.900Z,99589.25
2022-09-17T14:52:30.529Z,99613.41
2022-09-17T14:55:17.626Z,99610.16
2022-09-17T14:57:47.281Z,99627.53
2022-09-17T15:00:21.731Z,99595.69
2022-09-17T15:02:55.730Z,99603.28
2022-09-17T15:05:33.338Z,99587.84
2022-09-17T15:08:19.204Z,99589.00
2022-09-17T15:10:57.043Z,99591.72
2022-09-17T15:13:48.352Z,99610.41
2022-09-17T15:16:30.724Z,99596.78
2022-09-17T15:18:59.798Z,99628.47
2022-09-17T15:21:49.409Z,99617.34
2022-09-17T15:24:21.671Z,99631.25
2022-09-17T15:27:09.495Z,99613.06
2022-09-17T15:29:43.140Z,99612.94
2022-09-17T15:32:12.701Z,99607.41
2022-09-17T15:35:14.316Z,99610.19
2022-09-17T15:38:23.668Z,99606.56
2022-09-17T15:44:31.788Z,99600.75
2022-09-17T15:48:16.564Z,99604.94
2022-09-17T15:50:52.462Z,99601.66
2022-09-17T15:53:24.689Z,99603.44
2022-09-17T15:56:23.534Z,99601.09
2022-09-17T15:59:28.941Z,99607.13
2022-09-17T16:02:03.888Z,99589.03
2022-09-17T16:04:35.818Z,99619.66
2022-09-17T16:07:13.627Z,99600.75
2022-09-17T16:09:50.827Z,99620.69
2022-09-17T16:15:11.408Z,99594.03
2022-09-17T16:17:50.119Z,99593.91
2022-09-17T16:20:25.462Z,99609.97
2022-09-17T16:22:53.577Z,99610.81
2022-09-17T16:25:24.650Z,99611.63
2022-09-17T16:27:56.143Z,99614.13
2022-09-17T16:30:23.865Z,99616.91
2022-09-17T16:32:51.222Z,99611.00
2022-09-17T16:35:20.244Z,99622.84
2022-09-17T16:37:51.625Z,99614.22
2022-09-17T16:40:19.974Z,99618.84
2022-09-17T16:42:47.345Z,99620.44
2022-09-17T16:45:14.675Z,99626.31
2022-09-17T16:47:49.752Z,99641.13
2022-09-17T16:50:22.431Z,99640.72
2022-09-17T16:52:54.690Z,99618.00
2022-09-17T16:55:22.090Z,99609.97
2022-09-17T16:57:49.208Z,99623.78
2022-09-17T17:00:19.616Z,99623.38
2022-09-17T17:02:53.075Z,99628.97
2022-09-17T17:05:22.906Z,99626.66
2022-09-17T17:07:50.185Z,99628.16
2022-09-17T17:10:17.581Z,99620.88
2022-09-17T17:15:48.395Z,99619.72
2022-09-17T17:18:22.776Z,99632.38
2022-09-17T17:20:49.630Z,99618.81
2022-09-17T17:23:17.010Z,99642.44
2022-09-17T17:25:43.824Z,99633.06
2022-09-17T17:28:11.240Z,99630.09
2022-09-17T17:30:38.704Z,99631.28
2022-09-17T17:33:05.730Z,99628.28
2022-09-17T17:35:32.791Z,99630.22
2022-09-17T17:37:59.642Z,99621.19
2022-09-17T17:40:27.065Z,99633.94
2022-09-17T17:42:54.667Z,99625.88
2022-09-17T17:45:21.715Z,99635.53
2022-09-17T17:47:48.841Z,99641.09
2022-09-17T17:50:28.684Z,99629.47
2022-09-17T17:53:02.799Z,99621.50
2022-09-17T17:55:29.725Z,99625.63
2022-09-17T17:58:01.194Z,99628.47
2022-09-17T18:00:29.027Z,99626.41
2022-09-17T18:02:55.777Z,99625.47
2022-09-17T18:05:22.575Z,99622.47
2022-09-17T18:07:55.198Z,99629.81
2022-09-17T18:10:29.713Z,99624.19
2022-09-17T18:12:56.602Z,99634.41
2022-09-17T18:15:23.531Z,99641.19
2022-09-17T18:17:52.695Z,99631.94
2022-09-17T18:20:26.277Z,99635.44
2022-09-17T18:22:56.080Z,99640.78
2022-09-17T18:25:33.700Z,99635.75
2022-09-17T18:28:03.739Z,99636.44
2022-09-17T18:30:32.351Z,99639.03
2022-09-17T18:33:12.078Z,99646.00
2022-09-17T18:36:01.213Z,99641.06
2022-09-17T18:38:35.904Z,99638.78
2022-09-17T18:41:06.020Z,99646.47
2022-09-17T18:43:36.293Z,99635.69
2022-09-17T18:46:04.222Z,99645.13
2022-09-17T18:48:36.168Z,99641.41
2022-09-17T18:51:08.871Z,99639.97
2022-09-17T18:53:37.051Z,99649.22
2022-09-17T18:56:07.378Z,99644.25
2022-09-17T18:58:36.191Z,99642.00
2022-09-17T19:01:08.246Z,99638.09
2022-09-17T19:03:38.232Z,99646.47
2022-09-17T19:09:20.685Z,99647.59
2022-09-17T19:11:47.407Z,99648.09
2022-09-17T19:14:14.166Z,99648.00
2022-09-17T19:16:40.945Z,99644.16
2022-09-17T19:19:07.659Z,99648.13
2022-09-17T19:21:35.387Z,99662.22
2022-09-17T19:24:03.586Z,99656.47
2022-09-17T19:26:30.518Z,99656.44
2022-09-17T19:28:58.703Z,99650.41
2022-09-17T19:31:26.129Z,99654.59
2022-09-17T19:33:53.339Z,99640.63
2022-09-17T19:36:23.317Z,99640.88
2022-09-17T19:38:50.191Z,99653.56
2022-09-17T19:41:19.027Z,99640.88
2022-09-17T19:43:46.320Z,99647.28
2022-09-17T19:46:15.845Z,99639.44
2022-09-17T19:48:46.629Z,99651.50
2022-09-17T19:51:14.295Z,99649.91
2022-09-17T19:53:41.548Z,99650.47
2022-09-17T19:56:11.386Z,99639.94
2022-09-17T19:58:38.178Z,99637.63
2022-09-17T20:01:05.233Z,99637.78
2022-09-17T20:03:32.044Z,99640.97
2022-09-17T20:06:07.339Z,99640.75
2022-09-17T20:08:38.073Z,99630.19
2022-09-17T20:11:09.614Z,99629.50
2022-09-17T20:13:36.834Z,99630.69
2022-09-17T20:16:19.002Z,99631.91
2022-09-17T20:18:46.021Z,99635.56
2022-09-17T20:21:19.166Z,99634.84
2022-09-17T20:23:46.126Z,99633.06
2022-09-17T20:26:14.580Z,99638.72
2022-09-17T20:28:44.533Z,99627.75
2022-09-17T20:31:14.061Z,99619.53
2022-09-17T20:33:41.615Z,99624.88
2022-09-17T20:36:12.471Z,99628.59
2022-09-17T20:41:27.851Z,99633.56
2022-09-17T20:43:54.772Z,99632.31
2022-09-17T20:46:29.014Z,99633.03
2022-09-17T20:49:05.639Z,99634.38
2022-09-17T20:51:35.220Z,99638.94
2022-09-17T20:54:02.492Z,99642.09
2022-09-17T20:56:33.399Z,99634.84
2022-09-17T20:59:13.529Z,99623.97
2022-09-17T21:01:45.100Z,99628.94
2022-09-17T21:04:14.986Z,99628.94
2022-09-17T21:06:42.937Z,99629.66
2022-09-17T21:09:16.045Z,99621.59
2022-09-17T21:11:44.041Z,99626.53
2022-09-17T21:14:11.985Z,99634.88
2022-09-17T21:16:39.451Z,99640.66
2022-09-17T21:19:08.014Z,99639.22
2022-09-17T21:21:35.182Z,99638.84
2022-09-17T21:24:04.082Z,99642.34
2022-09-17T21:26:31.233Z,99636.16
2022-09-17T21:29:01.633Z,99642.22
2022-09-17T21:31:32.635Z,99633.31
2022-09-17T21:34:03.768Z,99636.44
2022-09-17T21:36:34.978Z,99634.50
2022-09-17T21:39:05.972Z,99630.91
2022-09-17T21:41:33.232Z,99640.66
2022-09-17T21:44:00.368Z,99640.66
2022-09-17T21:46:34.150Z,99638.97
2022-09-17T21:49:04.584Z,99633.91
2022-09-17T21:51:39.312Z,99641.88
2022-09-17T21:54:08.854Z,99634.38
2022-09-17T21:56:36.077Z,99636.56
2022-09-17T21:59:06.000Z,99645.97
2022-09-17T22:01:40.249Z,99639.59
2022-09-17T22:04:09.655Z,99647.19
2022-09-17T22:06:37.257Z,99648.75
2022-09-17T22:09:06.567Z,99634.72
2022-09-17T22:11:36.098Z,99635.34
2022-09-17T22:14:09.234Z,99636.78
2022-09-17T22:16:41.682Z,99636.91
2022-09-17T22:19:10.076Z,99638.84
2022-09-17T22:21:39.819Z,99640.44
2022-09-17T22:24:07.316Z,99638.00
2022-09-17T22:26:36.694Z,99634.34
2022-09-17T22:29:06.059Z,99640.88
2022-09-17T22:31:33.860Z,99631.94
2022-09-17T22:34:01.110Z,99638.47
2022-09-17T22:36:28.694Z,99634.47
2022-09-17T22:38:57.466Z,99638.34
2022-09-17T22:41:29.134Z,99636.31
2022-09-17T22:43:58.193Z,99635.94
2022-09-17T22:46:27.430Z,99631.72
2022-09-17T22:48:55.187Z,99635.09
2022-09-17T22:51:22.665Z,99632.06
2022-09-17T22:53:49.678Z,99632.56
2022-09-17T22:56:18.771Z,99633.25
2022-09-17T22:58:46.357Z,99633.34
2022-09-17T23:01:21.998Z,99624.44
2022-09-17T23:03:51.419Z,99626.16
2022-09-17T23:06:21.559Z,99623.50
2022-09-17T23:08:48.767Z,99614.09
2022-09-17T23:11:20.247Z,99626.41
2022-09-17T23:13:48.040Z,99617.34
2022-09-17T23:16:15.362Z,99618.91
2022-09-17T23:18:42.490Z,99622.19
2022-09-17T23:21:14.898Z,99614.69
2022-09-17T23:23:43.373Z,99623.00
2022-09-17T23:26:13.333Z,99617.13
2022-09-17T23:28:40.690Z,99613.59
2022-09-17T23:31:11.774Z,99613.97
2022-09-17T23:33:39.043Z,99620.91
2022-09-17T23:36:13.061Z,99622.38
2022-09-17T23:38:43.963Z,99626.09
2022-09-17T23:41:12.663Z,99629.25
2022-09-17T23:43:39.495Z,99623.94
2022-09-17T23:46:06.391Z,99623.84
2022-09-17T23:48:33.622Z,99613.16
2022-09-17T23:51:00.860Z,99616.66
2022-09-17T23:53:30.179Z,99618.16
2022-09-17T23:55:57.073Z,99620.09
2022-09-17T23:58:23.963Z,99621.94
